フィラデルフィア国際空港の過去48時間の天気

フィラデルフィア国際空港 (Philadelphia, Philadelphia International Airport)

現在時刻: 12/8 01:43 EST (12/8 06:43 UTC) 以下の時間は現地時間です。

過去48時間のMETAR気象情報
時間 風向 風速(m/s) 視程 気温(℃) 湿度(%) 気圧(hPa) 天気現象
8 01:14 西 2 10km以上 8.9 96 1022 散在した霧 もや
8 00:54 西 2 10km以上 9.4 97 1021.6 散在した霧 もや
8 00:36 西南西 2 10km以上 10 96 1022 もや
7 23:54 2 10km以上 10 100 1021.7 もや
7 23:24 西北西 2 10km以上 12.2 93 1022 もや
7 22:54 西南西 4 10km以上 12.2 93 1021.8 もや
7 22:27 西南西 3 10km以上 12.2 93 1022 もや
7 21:54 西 3 8050m 12.2 97 1021.8 もや
7 21:33 西南西 3 8050m 12.2 93 1022 もや
7 20:54 西南西 3 10km以上 12.2 93 1021.3 もや
7 20:02 西南西 3 10km以上 12.2 97 1021 もや
7 19:54 西南西 4 6450m 12.2 97 1021.3 もや
7 18:54 西南西 5 800m 12.2 97 1020.8
7 18:08 西南西 3 1200m 12.8 96 1020 もや
7 17:54 西南西 3 2400m 12.8 96 1020.4 もや
7 16:54 西南西 4 1200m 12.8 96 1020.2 もや
7 16:34 南西 4 1200m 12.8 96 1020 もや
7 15:54 西南西 3 2400m 12.8 96 1020.1 もや
7 14:54 西南西 4 4000m 12.8 96 1019.9 もや
7 14:22 西南西 4 4000m 12.8 96 1020 もや
7 13:54 西南西 5 6450m 12.8 96 1020.2 もや
7 13:00 南西 5 4850m 12.8 96 1021 もや
7 12:54 西南西 5 3200m 12.8 100 1020.7 もや
7 12:18 西南西 5 1600m 12.8 100 1021 もや
7 12:07 西南西 4 1200m 12.8 96 1021 弱い霧雨 もや
7 11:54 西 4 800m 12.8 100 1021.2 弱い霧雨 霧
7 11:45 南西 4 800m 12.8 96 1021 弱い霧雨 霧
7 11:08 南西 3 1600m 12.8 96 1022 もや
7 10:54 南南西 3 1200m 12.2 100 1021.6 弱い霧雨 もや
7 09:54 南西 2 2400m 12.2 100 1022.2 弱い霧雨 もや
7 09:43 南南西 2 1600m 12.2 100 1022 弱い霧雨 もや
7 09:32 南南西 2 1200m 12.2 97 1022 もや
7 09:25 南西 3 1200m 12.2 97 1022 もや
7 08:54 西南西 3 800m 12.2 100 1022.6
7 08:46 西南西 2 800m 12.2 97 1023
7 08:07 静穏 0 400m 11.7 100 1023 弱い霧雨 霧
7 07:58 静穏 0 800m 11.7 100 1023 弱い霧雨 霧
7 07:36 西南西 2 1200m 11.7 100 1023 弱い霧雨 もや
7 07:30 西 2 1600m 11.7 96 1023 弱い霧雨 もや
7 06:54 南南東 2 2000m 11.7 96 1022.3 弱い霧雨 もや
7 05:54 静穏 0 2400m 11.7 96 1022.3 もや
7 05:32 2 2400m 11.1 100 1022 もや
7 05:13 南東 2 2000m 11.7 96 1023 もや
7 04:54 南南西 2 3200m 11.1 100 1022.8 弱い雨 もや
7 04:08 西南西 2 2400m 11.7 96 1023 弱い雨 もや
7 03:54 西南西 3 1600m 11.7 96 1022.8 弱い雨 もや
7 03:26 南西 2 2000m 11.1 100 1023 弱い雨 もや
7 03:03 西南西 3 2000m 11.1 100 1023 弱い雨 もや
7 02:54 西 4 1200m 11.1 100 1023.3 もや
7 02:48 西 4 1200m 12 94 1023 もや
7 02:35 西南西 3 2000m 11.7 96 1023 弱い雨 もや
7 01:54 西南西 2 1200m 11.7 96 1022.9 弱い雨 もや
7 01:37 西南西 3 1200m 11.7 100 1023 弱い雨 もや
7 00:54 西南西 2 1600m 11.7 100 1022.6 もや
7 00:03 西南西 2 1600m 12.2 100 1023 弱い雨 もや
6 23:54 南西 2 1600m 12.2 97 1023 弱い雨 もや
6 23:14 南南西 2 2400m 12.2 100 1023 弱い雨 もや
6 22:54 南西 3 3200m 12.8 96 1023.2 弱い雨 もや
6 22:27 南西 2 3200m 12.8 96 1023 弱い雨 もや
6 21:54 南南西 3 4850m 12.8 96 1023.3 弱い雨 もや
6 21:38 南南西 3 4850m 12.8 96 1023 雨 もや
6 20:56 南西 3 8050m 12.2 100 1023 弱い雨 もや
6 20:54 南西 3 4850m 12.2 100 1023.4 雨 もや
6 19:54 西南西 3 4850m 13.3 97 1023.5 弱い雨 もや
6 18:59 3 6450m 13.9 96 1023 弱い雨 もや
6 18:54 南南西 3 8050m 13.9 96 1023.4 弱い雨 もや
6 18:24 4 6450m 13.9 96 1023 もや
6 17:54 南南東 3 4850m 13.3 97 1023.3 弱い雨 もや
6 16:54 静穏 0 3200m 11.7 96 1023.4 弱い雨 もや
6 16:48 静穏 0 3200m 12 94 1024 弱い雨 もや
6 16:42 静穏 0 3200m 11.7 96 1024 雨 もや
6 15:54 西北西 3 1600m 12.2 97 1023.8 雨 もや
6 15:29 西 3 1600m 12.2 100 1024 弱い雨 もや
6 14:54 4 3200m 13.3 97 1023.2 弱い雨 もや
6 14:40 南南東 4 2800m 13.3 97 1023 雨 もや
6 13:54 南南東 5 6450m 13.3 93 1023 弱い雨 もや
6 12:54 南南東 5 4850m 13.9 89 1023.5 弱い雨 もや
6 12:42 南南東 5 10km以上 13.9 87 1024 弱い雨 もや
6 12:19 南南東 3 10km以上 11.7 93 1024 弱い雨
6 12:05 2 8050m 10.6 96 1024 弱い雨 もや
6 11:54 2 4850m 10 96 1023.8 弱い雨 もや
6 11:07 北北東 2 4850m 8.9 93 1025 弱い雨 もや
6 10:54 北北東 2 6450m 8.3 97 1025.1 弱い雨 もや
6 10:39 不定 2 10km以上 8.3 93 1025 弱い雨 もや
6 10:09 北東 2 10km以上 7.2 93 1026
6 10:03 静穏 0 8050m 6.7 93 1026 弱い雨 もや
6 09:42 東北東 2 2400m 6.7 93 1026 弱い雨 もや
6 09:31 静穏 0 8050m 6.7 89 1026 弱い雨 もや
6 08:54 3 10km以上 6.1 89 1025.6
6 08:32 東南東 3 10km以上 6.1 89 1026 弱い雨
6 08:12 静穏 0 10km以上 6.7 82 1026 弱い雨
6 07:54 静穏 0 10km以上 6.1 86 1025.3 弱い雨
6 06:58 北東 2 10km以上 6.1 79 1025
6 06:54 北東 3 10km以上 6.1 79 1025.1
6 05:54 東北東 2 10km以上 5.6 76 1025
6 05:25 北北東 4 10km以上 5 76 1025
6 04:54 北東 3 10km以上 4.4 79 1024.9
6 03:54 北東 2 10km以上 2.2 79 1025.4
6 02:54 北東 2 10km以上 1.7 82 1025.5
6 01:54 北北東 3 10km以上 2.2 75 1025.5
KPHL 080614Z 28003KT 6SM BCFG BR FEW008 FEW230 09/08 A3018 RMK AO2 T00890083 $
KPHL 080554Z 26003KT 6SM BCFG BR FEW230 09/09 A3017 RMK AO2 SLP216 T00940089 10128 20094 58001 $
KPHL 080536Z 24003KT 6SM R09R/3000VP6000FT BR FEW008 FEW230 10/09 A3017 RMK AO2 T01000094 $
KPHL 080454Z 19003KT 6SM BR BKN230 10/10 A3017 RMK AO2 SLP217 T01000100 401330100 $
KPHL 080424Z 29004KT 6SM BR SCT008 BKN150 12/11 A3018 RMK AO2 T01220111 $
KPHL 080354Z 25007KT 6SM BR BKN007 OVC015 12/11 A3018 RMK AO2 SLP218 T01220111 $
KPHL 080327Z 24006KT 6SM BR BKN007 OVC015 12/11 A3017 RMK AO2 T01220111 $
KPHL 080254Z 27006KT 5SM BR BKN006 OVC011 12/12 A3018 RMK AO2 SLP218 T01220117 51010 $
KPHL 080233Z 25005KT 5SM BR OVC005 12/11 A3018 RMK AO2 T01220111 $
KPHL 080154Z 25006KT 6SM BR OVC007 12/11 A3016 RMK AO2 SLP213 T01220111 $
KPHL 080102Z 25006KT 6SM BR OVC007 12/12 A3016 RMK AO2 T01220117 $
KPHL 080054Z 25007KT 4SM BR OVC006 12/12 A3016 RMK AO2 SLP213 T01220117 $
KPHL 072354Z 25009KT 1/2SM R09R/2200V4000FT FG OVC003 12/12 A3015 RMK AO2 SLP208 T01220117 10133 20122 53007 $
KPHL 072308Z 25006KT 3/4SM R09R/1600V2000FT BR OVC003 13/12 A3013 RMK AO2 T01280122 $
KPHL 072254Z 25005KT 1 1/2SM R09R/3000V4500FT BR BKN003 OVC010 13/12 A3014 RMK AO2 SLP204 T01280122 $
KPHL 072154Z 24008KT 3/4SM R09R/3000VP6000FT BR OVC003 13/12 A3013 RMK AO2 SLP202 T01280122 $
KPHL 072134Z 23008KT 3/4SM R09R/P6000FT BR OVC003 13/12 A3013 RMK AO2 T01280122 $
KPHL 072054Z 25006KT 1 1/2SM R09R/2000V4000FT BR OVC004 13/12 A3013 RMK AO2 SLP201 T01280122 55006 $
KPHL 071954Z 24008KT 2 1/2SM BR OVC004 13/12 A3012 RMK AO2 SLP199 T01280122 $
KPHL 071922Z 25007KT 2 1/2SM BR OVC004 13/12 A3012 RMK AO2 T01280122 $
KPHL 071854Z 24009KT 4SM BR OVC004 13/12 A3013 RMK AO2 SLP202 T01280122 $
KPHL 071800Z 23009KT 3SM BR OVC004 13/12 A3014 RMK AO2 T01280122 $
KPHL 071754Z 25009KT 2SM BR OVC004 13/13 A3014 RMK AO2 DZE13 SLP207 P0000 60001 T01280128 10128 20111 56015 $
KPHL 071718Z 24009KT 1SM R09R/2200V6000FT BR OVC003 13/13 A3015 RMK AO2 DZE13 P0000 T01280128 $
KPHL 071707Z 24008KT 3/4SM R09R/1400VP6000FT -DZ BR OVC002 13/12 A3015 RMK AO2 P0000 T01280122 $
KPHL 071654Z 26008KT 1/2SM R09R/1600V2000FT -DZ FG OVC002 13/13 A3016 RMK AO2 DZE08B40 SLP212 P0000 T01280128 $
KPHL 071645Z 22008KT 1/2SM R09R/1400V1600FT -DZ FG OVC002 13/12 A3016 RMK AO2 DZE08B40 P0000 T01280122 $
KPHL 071608Z 22006KT 1SM R09R/5000VP6000FT BR OVC002 13/12 A3017 RMK AO2 DZE08 P0000 T01280122 $
KPHL 071554Z 21005KT 3/4SM R09R/3500V5000FT -DZ BR OVC002 12/12 A3017 RMK AO2 SLP216 P0000 T01220122 $
KPHL 071454Z 22004KT 1 1/2SM R09R/1800V2400FT -DZ BR OVC004 12/12 A3019 RMK AO2 DZB43 SLP222 P0001 60001 T01220122 58001 $
KPHL 071443Z 21003KT 1SM R09R/1800V2600FT -DZ BR OVC003 12/12 A3018 RMK AO2 DZB43 P0001 T01220122
KPHL 071432Z 21004KT 3/4SM R09R/1800V2600FT BR OVC003 12/12 A3019 RMK AO2 P0001 T01220117
KPHL 071425Z 23005KT 3/4SM R09R/1400V2200FT BR OVC003 12/12 A3019 RMK AO2 P0001 T01220117
KPHL 071354Z 25005KT 1/2SM R09R/1600V2000FT FG OVC002 12/12 A3020 RMK AO2 DZE46 SLP226 P0000 T01220122
KPHL 071346Z 25004KT 1/2SM R09R/1800V2000FT FG OVC002 12/12 A3020 RMK AO2 DZE46 P0000 T01220117
KPHL 071307Z 00000KT 1/4SM R09R/1800V2000FT -DZ FG OVC002 12/12 A3020 RMK AO2 P0000 T01170117
KPHL 071258Z 00000KT 1/2SM R09R/2000V2800FT -DZ FG OVC003 12/12 A3020 RMK AO2 CIG 002V004 P0000 T01170117
KPHL 071236Z 24004KT 3/4SM R09R/4000VP6000FT -DZ BR OVC004 12/12 A3020 RMK AO2 CIG 003V005 P0000 T01170117
KPHL 071230Z 27003KT 1SM R09R/5500VP6000FT -DZ BR OVC004 12/11 A3020 RMK AO2 CIG 003V005 P0000 T01170111
KPHL 071154Z 15003KT 1 1/4SM R09R/3000V4500FT -DZ BR OVC005 12/11 A3019 RMK AO2 DZB23 SLP223 CIG 004V006 P0000 60009 70071 T01170111 10117 20111 57005
KPHL 071054Z 00000KT 1 1/2SM R09R/2800V4000FT BR OVC006 12/11 A3019 RMK AO2 RAE0959 SLP223 VIS NE 2 CIG 005V007 P0001 T01170111
KPHL 071032Z 17003KT 1 1/2SM R09R/4000VP6000FT BR OVC005 11/11 A3019 RMK AO2 RAE0959 P0001 T01110111
KPHL 071013Z 14003KT 1 1/4SM R09R/2600V3500FT BR OVC004 12/11 A3020 RMK AO2 RAE0959 P0001 T01170111
KPHL 070954Z 20003KT 2SM -RA BR OVC006 11/11 A3021 RMK AO2 SLP228 P0002 T01110111
KPHL 070908Z 24004KT 1 1/2SM -RA BR BKN006 OVC012 12/11 A3020 RMK AO2 P0001 T01170111
KPHL 070854Z 25006KT 1SM R09R/P6000FT -RA BR SCT005 OVC015 12/11 A3021 RMK AO2 RAB01 SLP228 P0001 60006 T01170111 50002
KPHL 070826Z 23004KT 1 1/4SM R09R/6000VP6000FT -RA BR SCT003 OVC009 11/11 A3021 RMK AO2 RAB01 P0000 T01110111
KPHL 070803Z 25006KT 1 1/4SM R09R/4000V5000FT -RA BR OVC005 11/11 A3022 RMK AO2 RAB01 P0000 T01110111
KPHL 070754Z 26007KT 3/4SM R09R/4000VP6000FT BR BKN008 OVC015 11/11 A3022 RMK AO2 RAE48 SLP233 P0003 T01110111
KPHL 070748Z 26008KT 3/4SM R09R/4000V6000FT BR BKN008 OVC012 12/11 A3022 RMK AO2 RAE48 P0003
KPHL 070735Z 25006KT 1 1/4SM R09R/4000VP6000FT -RA BR SCT004 BKN008 OVC016 12/11 A3022 RMK AO2 P0002 T01170111
KPHL 070654Z 25003KT 3/4SM R09R/3500V4500FT -RA BR OVC003 12/11 A3021 RMK AO2 RAB16 SLP229 P0002 T01170111
KPHL 070637Z 25005KT 3/4SM R09R/4000V6000FT -RA BR OVC003 12/12 A3021 RMK AO2 RAB16 P0001 T01170117
KPHL 070554Z 25004KT 1SM R09R/2800V3500FT BR OVC003 12/12 A3020 RMK AO2 RAE26 SLP226 P0001 60020 T01170117 10139 20117 58006
KPHL 070503Z 25004KT 1SM R09R/P6000FT -RA BR OVC003 12/12 A3021 RMK AO2 P0000 T01220122
KPHL 070454Z 23004KT 1SM R09R/P6000FT -RA BR BKN005 OVC011 12/12 A3021 RMK AO2 SLP230 P0003 T01220117 401390006
KPHL 070414Z 20004KT 1 1/2SM -RA BR OVC005 12/12 A3022 RMK AO2 P0000 T01220122
KPHL 070354Z 22005KT 2SM -RA BR OVC005 13/12 A3022 RMK AO2 SLP232 P0003 T01280122
KPHL 070327Z 23004KT 2SM -RA BR BKN006 OVC011 13/12 A3022 RMK AO2 P0001 T01280122
KPHL 070254Z 20005KT 3SM -RA BR OVC005 13/12 A3022 RMK AO2 SLP233 P0006 60013 T01280122 58001
KPHL 070238Z 21005KT 3SM RA BR OVC006 13/12 A3022 RMK AO2 P0004 T01280122
KPHL 070156Z 23006KT 5SM -RA BR OVC004 12/12 A3022 RMK AO2 P0000 T01220122
KPHL 070154Z 23006KT 3SM RA BR OVC005 12/12 A3022 RMK AO2 SLP234 P0005 T01220122
KPHL 070054Z 24006KT 3SM R09R/5500VP6000FT -RA BR OVC005 13/13 A3023 RMK AO2 SLP235 P0002 T01330128
KPHL 062359Z 19005KT 4SM -RA BR OVC006 14/13 A3022 RMK AO2 P0000 T01390133
KPHL 062354Z 20005KT 5SM -RA BR FEW004 OVC007 14/13 A3022 RMK AO2 RAE16B48 SLP234 P0001 60036 T01390133 10139 20117 55004
KPHL 062324Z 19007KT 4SM BR SCT004 OVC007 14/13 A3022 RMK AO2 RAE16 P0001 T01390133
KPHL 062254Z 15005KT 3SM -RA BR BKN004 OVC008 13/13 A3022 RMK AO2 SLP233 P0003 T01330128
KPHL 062154Z 00000KT 2SM -RA BR BKN004 OVC008 12/11 A3022 RMK AO2 SLP234 P0012 T01170111
KPHL 062148Z 00000KT 2SM -RA BR BKN004 OVC008 12/11 A3023 RMK AO2 P0011
KPHL 062142Z 00000KT 2SM RA BR OVC005 12/11 A3023 RMK AO2 P0011 T01170111
KPHL 062054Z 29006KT 1SM R09R/6000VP6000FT RA BR BKN004 OVC012 12/12 A3024 RMK AO2 SLP238 P0010 60020 T01220117 53003
KPHL 062029Z 27006KT 1SM R09R/4500V5500FT -RA BR BKN004 OVC012 12/12 A3023 RMK AO2 P0001 T01220122
KPHL 061954Z 17007KT 2SM -RA BR BKN004 OVC013 13/13 A3022 RMK AO2 SLP232 P0004 T01330128
KPHL 061940Z 16008KT 1 3/4SM R09R/6000VP6000FT RA BR BKN004 OVC010 13/13 A3022 RMK AO2 P0003 T01330128
KPHL 061854Z 15010KT 4SM -RA BR BKN012 BKN027 OVC032 13/12 A3021 RMK AO2 SLP230 P0006 T01330122
KPHL 061754Z 16010G20KT 3SM -RA BR BKN014 BKN030 OVC035 14/12 A3023 RMK AO2 SLP235 P0001 60006 T01390122 10139 20061 56021
KPHL 061742Z 16010KT 6SM -RA BR BKN014 OVC036 14/12 A3023 RMK AO2 P0001 T01390117
KPHL 061719Z 15005KT 7SM -RA SCT014 BKN030 OVC038 12/11 A3023 RMK AO2 P0001 T01170106
KPHL 061705Z 09003KT 5SM -RA BR SCT020 BKN030 OVC047 11/10 A3023 RMK AO2 P0001 T01060100
KPHL 061654Z 08004KT 3SM -RA BR SCT023 BKN029 OVC040 10/09 A3024 RMK AO2 SLP238 P0002 T01000094
KPHL 061607Z 03004KT 3SM -RA BR BKN029 OVC034 09/08 A3026 RMK AO2 P0001 T00890078
KPHL 061554Z 02003KT 4SM -RA BR FEW016 OVC030 08/08 A3027 RMK AO2 RAE09B33 SLP251 P0001 T00830078
KPHL 061539Z VRB03KT 6SM -RA BR FEW016 BKN030 OVC042 08/07 A3028 RMK AO2 RAE09B33 P0000 T00830072
KPHL 061509Z 04003KT 7SM FEW016 SCT025 OVC042 07/06 A3029 RMK AO2 RAE09 P0000 T00720061
KPHL 061503Z 00000KT 5SM -RA BR SCT016 BKN028 OVC042 07/06 A3029 RMK AO2 P0000 T00670056
KPHL 061442Z 07003KT 1 1/2SM -RA BR SCT018 BKN024 OVC044 07/06 A3029 RMK AO2 RAB09 P0000 T00670056
KPHL 061431Z 00000KT 5SM -RA BR SCT024 BKN035 OVC042 07/05 A3029 RMK AO2 RAB09 P0000 T00670050
KPHL 061354Z 08005KT 9SM FEW045 OVC060 06/04 A3029 RMK AO2 RAE43 SLP256 VCSH P0002 T00610044
KPHL 061332Z 11005KT 7SM -RA FEW008 FEW042 OVC055 06/04 A3029 RMK AO2 P0002 T00610044
KPHL 061312Z 00000KT 6SM -RA FEW008 FEW042 OVC055 07/04 A3029 RMK AO2 P0000 T00670039
KPHL 061254Z 00000KT 10SM -RA FEW008 SCT047 OVC060 06/04 A3028 RMK AO2 RAB37 SLP253 P0000 T00610039
KPHL 061158Z 05004KT 10SM SCT008 BKN046 OVC060 06/03 A3027 RMK AO2 VCSH T00610028
KPHL 061154Z 04006KT 10SM BKN008 OVC047 06/03 A3027 RMK AO2 SLP251 T00610028 10061 20006 55003
KPHL 061054Z 06003KT 10SM OVC009 06/02 A3027 RMK AO2 SLP250 T00560017
KPHL 061025Z 03007KT 10SM BKN012 OVC048 05/01 A3026 RMK AO2 T00500011
KPHL 060954Z 05005KT 10SM BKN047 OVC060 04/01 A3027 RMK AO2 SLP249 T00440011
KPHL 060854Z 05003KT 10SM SCT060 02/M01 A3028 RMK AO2 SLP254 T00221011 57003
KPHL 060754Z 05003KT 10SM BKN060 02/M01 A3029 RMK AO2 SLP255 T00171011
KPHL 060654Z 03005KT 10SM BKN049 OVC065 02/M02 A3028 RMK AO2 SLP255 T00221017